createdAt,value
2022-12-23T00:03:18.187Z,134.70
2022-12-23T00:08:30.441Z,133.93
2022-12-23T00:13:46.377Z,131.80
2022-12-23T00:18:45.221Z,124.50
2022-12-23T00:23:47.134Z,124.00
2022-12-23T00:28:46.689Z,119.60
2022-12-23T00:33:48.197Z,130.83
2022-12-23T00:39:06.263Z,133.07
2022-12-23T00:44:06.184Z,134.40
2022-12-23T00:49:22.623Z,121.93
2022-12-23T00:54:23.030Z,131.87
2022-12-23T00:59:24.204Z,132.30
2022-12-23T01:04:40.643Z,116.57
2022-12-23T01:09:40.967Z,115.77
2022-12-23T01:14:40.348Z,113.07
2022-12-23T01:19:39.581Z,102.50
2022-12-23T01:24:38.421Z,96.87
2022-12-23T01:29:38.707Z,92.97
2022-12-23T01:34:37.939Z,106.47
2022-12-23T01:39:36.892Z,101.23
2022-12-23T01:44:55.973Z,136.43
2022-12-23T01:49:58.314Z,189.67
2022-12-23T01:54:58.501Z,129.27
2022-12-23T02:00:15.895Z,105.03
2022-12-23T02:05:17.994Z,109.80
2022-12-23T02:10:17.243Z,109.13
2022-12-23T02:15:47.482Z,105.93
2022-12-23T02:21:13.732Z,105.77
2022-12-23T02:26:43.868Z,91.43
2022-12-23T02:31:56.902Z,96.80
2022-12-23T02:37:02.315Z,104.37
2022-12-23T02:42:09.352Z,106.63
2022-12-23T02:47:13.911Z,110.53
2022-12-23T02:52:15.469Z,106.57
2022-12-23T02:57:18.130Z,111.70
2022-12-23T03:02:18.860Z,107.33
2022-12-23T03:07:21.941Z,105.70
2022-12-23T03:12:29.516Z,79.20
2022-12-23T03:17:56.654Z,109.67
2022-12-23T03:23:04.900Z,95.43
2022-12-23T03:28:12.334Z,106.83
2022-12-23T03:33:16.725Z,86.80
2022-12-23T03:38:18.786Z,88.50
2022-12-23T03:43:23.536Z,72.40
2022-12-23T03:48:28.284Z,74.90
2022-12-23T03:53:31.858Z,76.53
2022-12-23T03:58:39.137Z,77.72
2022-12-23T04:03:48.143Z,85.17
2022-12-23T04:08:49.888Z,92.87
2022-12-23T04:13:49.616Z,92.53
2022-12-23T04:18:49.895Z,89.50
2022-12-23T04:23:48.829Z,98.33
2022-12-23T04:28:48.041Z,109.80
2022-12-23T04:33:47.028Z,109.00
2022-12-23T04:38:47.223Z,96.33
2022-12-23T04:43:52.569Z,102.03
2022-12-23T04:48:52.109Z,93.63
2022-12-23T04:53:52.395Z,89.63
2022-12-23T04:58:51.200Z,97.40
2022-12-23T05:03:50.304Z,98.80
2022-12-23T05:08:49.104Z,99.33
2022-12-23T05:13:49.216Z,100.07
2022-12-23T05:18:48.200Z,105.13
2022-12-23T05:23:46.952Z,105.87
2022-12-23T05:28:46.441Z,106.27
2022-12-23T05:33:46.812Z,95.17
2022-12-23T05:38:45.713Z,105.87
2022-12-23T05:43:44.849Z,109.30
2022-12-23T05:48:43.700Z,118.63
2022-12-23T05:53:43.886Z,113.33
2022-12-23T06:03:45.418Z,95.70
2022-12-23T06:08:45.846Z,98.03
2022-12-23T06:13:44.685Z,86.43
2022-12-23T06:18:46.612Z,95.07
2022-12-23T06:23:47.478Z,84.93
2022-12-23T06:28:46.436Z,90.07
2022-12-23T06:33:45.446Z,105.50
2022-12-23T06:38:44.238Z,124.90
2022-12-23T06:43:44.409Z,104.37
2022-12-23T06:48:43.128Z,75.77
2022-12-23T06:53:42.504Z,69.23
2022-12-23T06:58:41.220Z,75.10
2022-12-23T07:03:41.505Z,92.93
2022-12-23T07:08:41.536Z,89.67
2022-12-23T07:13:40.259Z,159.83
2022-12-23T07:18:39.044Z,193.10
2022-12-23T07:23:39.399Z,174.40
2022-12-23T07:28:38.440Z,175.93
2022-12-23T07:33:37.272Z,138.20
2022-12-23T07:38:36.102Z,122.83
2022-12-23T07:43:36.361Z,131.27
2022-12-23T07:48:35.114Z,102.20
2022-12-23T07:53:33.801Z,99.00
2022-12-23T07:58:37.894Z,155.20
2022-12-23T08:03:38.265Z,111.28
2022-12-23T08:08:37.231Z,106.10
2022-12-23T08:13:39.307Z,78.43
2022-12-23T08:18:39.937Z,82.97
2022-12-23T08:23:41.611Z,81.20
2022-12-23T08:28:43.754Z,93.37
2022-12-23T08:33:44.409Z,89.67
2022-12-23T08:38:43.631Z,97.87
2022-12-23T08:43:45.952Z,105.30
2022-12-23T08:48:49.515Z,95.50
2022-12-23T08:53:51.558Z,97.93
2022-12-23T08:59:00.141Z,89.27
2022-12-23T09:04:08.110Z,58.67
2022-12-23T09:09:07.437Z,56.35
2022-12-23T09:14:08.744Z,51.50
2022-12-23T09:19:08.101Z,51.95
2022-12-23T09:24:10.108Z,49.17
2022-12-23T09:29:12.823Z,55.72
2022-12-23T09:34:12.543Z,55.67
2022-12-23T09:39:12.722Z,52.97
2022-12-23T09:44:33.510Z,50.80
2022-12-23T09:49:33.622Z,53.40
2022-12-23T09:54:41.536Z,52.13
2022-12-23T09:59:56.664Z,56.85
2022-12-23T10:05:04.330Z,61.47
2022-12-23T10:10:13.319Z,46.03
2022-12-23T10:15:23.039Z,55.70
2022-12-23T10:20:33.089Z,47.20
2022-12-23T10:25:36.578Z,48.13
2022-12-23T10:31:05.687Z,51.15
2022-12-23T10:36:10.807Z,46.50
2022-12-23T10:41:23.038Z,57.97
2022-12-23T10:46:43.171Z,68.40
2022-12-23T10:51:48.315Z,53.67
2022-12-23T10:56:47.395Z,54.08
2022-12-23T11:01:54.373Z,48.30
2022-12-23T11:07:18.034Z,45.05
2022-12-23T11:12:15.032Z,42.38
2022-12-23T11:17:23.577Z,39.65
2022-12-23T11:22:27.919Z,54.53
2022-12-23T11:27:27.011Z,43.83
2022-12-23T11:32:29.728Z,38.95
2022-12-23T11:37:36.323Z,38.85
2022-12-23T11:42:36.347Z,39.20
2022-12-23T11:47:40.291Z,45.75
2022-12-23T11:52:54.231Z,46.85
2022-12-23T11:57:54.002Z,43.72
2022-12-23T12:02:57.708Z,46.50
2022-12-23T12:08:01.608Z,47.45
2022-12-23T12:13:05.086Z,43.83
2022-12-23T12:18:08.216Z,43.55
2022-12-23T12:23:14.596Z,49.65
2022-12-23T12:28:19.980Z,44.05
2022-12-23T12:33:24.913Z,49.30
2022-12-23T12:38:28.501Z,45.80
2022-12-23T12:48:42.388Z,40.38
2022-12-23T12:53:56.205Z,45.15
2022-12-23T12:58:57.865Z,50.38
2022-12-23T13:04:26.317Z,47.58
2022-12-23T13:09:39.339Z,49.35
2022-12-23T13:14:50.178Z,43.60
2022-12-23T13:19:56.201Z,46.03
2022-12-23T13:25:02.921Z,52.90
2022-12-23T13:30:06.490Z,46.35
2022-12-23T13:40:26.218Z,46.95
2022-12-23T13:45:57.515Z,48.80
2022-12-23T13:51:03.056Z,53.60
2022-12-23T13:56:19.466Z,60.60
2022-12-23T14:01:37.341Z,60.30
2022-12-23T14:06:58.641Z,67.25
2022-12-23T14:12:13.924Z,56.25
2022-12-23T14:17:24.383Z,69.57
2022-12-23T14:22:38.607Z,54.03
2022-12-23T14:27:53.662Z,90.03
2022-12-23T14:32:58.259Z,153.68
2022-12-23T14:38:30.064Z,94.45
2022-12-23T14:44:02.220Z,81.85
2022-12-23T14:49:38.454Z,64.60
2022-12-23T14:55:06.071Z,75.60
2022-12-23T15:00:11.671Z,103.18
2022-12-23T15:05:11.149Z,81.82
2022-12-23T15:10:20.085Z,81.38
2022-12-23T15:15:23.686Z,99.07
2022-12-23T15:20:27.457Z,89.53
2022-12-23T15:25:28.917Z,81.10
2022-12-23T15:30:34.165Z,65.45
2022-12-23T15:35:37.010Z,76.22
2022-12-23T15:40:38.003Z,79.90
2022-12-23T15:45:42.584Z,74.25
2022-12-23T15:50:45.743Z,73.93
2022-12-23T15:55:47.598Z,124.82
2022-12-23T16:00:55.714Z,106.25
2022-12-23T16:05:54.847Z,124.13
2022-12-23T16:11:08.772Z,100.18
2022-12-23T16:16:34.006Z,136.73
2022-12-23T16:21:37.866Z,98.35
2022-12-23T16:26:49.140Z,134.93
2022-12-23T16:32:01.774Z,118.97
2022-12-23T16:42:02.196Z,114.70
2022-12-23T16:47:08.283Z,102.90
2022-12-23T16:52:11.404Z,103.68
2022-12-23T16:57:14.118Z,117.10
2022-12-23T17:02:22.907Z,102.78
2022-12-23T17:07:26.551Z,108.13
2022-12-23T17:12:26.282Z,134.07
2022-12-23T17:17:26.641Z,134.02
2022-12-23T17:22:29.496Z,155.35
2022-12-23T17:27:28.371Z,123.57
2022-12-23T17:32:29.256Z,145.55
2022-12-23T17:37:31.299Z,111.50
2022-12-23T17:42:39.189Z,134.68
2022-12-23T17:47:39.491Z,127.57
2022-12-23T17:52:38.579Z,112.45
2022-12-23T17:57:37.399Z,108.43
2022-12-23T18:02:36.271Z,127.03
2022-12-23T18:07:38.454Z,136.30
2022-12-23T18:12:40.400Z,149.75
2022-12-23T18:17:39.435Z,133.57
2022-12-23T18:22:41.517Z,143.10
2022-12-23T18:27:40.315Z,153.40
2022-12-23T18:32:42.046Z,147.88
2022-12-23T18:37:43.599Z,139.70
2022-12-23T18:42:42.437Z,135.18
2022-12-23T18:47:43.980Z,122.07
2022-12-23T18:52:46.632Z,123.88
2022-12-23T18:57:45.477Z,141.70
2022-12-23T19:02:44.813Z,200.80
2022-12-23T19:07:45.477Z,225.23
2022-12-23T19:12:44.208Z,268.45
2022-12-23T19:17:43.025Z,194.93
2022-12-23T19:22:42.392Z,177.98
2022-12-23T19:27:47.729Z,202.50
2022-12-23T19:32:46.874Z,176.27
2022-12-23T19:37:45.665Z,140.63
2022-12-23T19:42:46.346Z,183.60
2022-12-23T19:47:46.822Z,192.90
2022-12-23T19:52:50.227Z,168.85
2022-12-23T19:57:49.064Z,155.77
2022-12-23T20:02:55.109Z,159.63
2022-12-23T20:07:58.768Z,154.70
2022-12-23T20:12:57.666Z,147.77
2022-12-23T20:18:00.674Z,148.68
2022-12-23T20:22:59.650Z,122.90
2022-12-23T20:27:58.461Z,130.77
2022-12-23T20:32:59.410Z,177.35
2022-12-23T20:37:58.208Z,122.07
2022-12-23T20:42:58.397Z,108.00
2022-12-23T20:47:58.606Z,115.50
2022-12-23T20:52:57.586Z,100.05
2022-12-23T20:57:56.554Z,99.82
2022-12-23T21:03:08.385Z,153.40
2022-12-23T21:08:10.613Z,113.25
2022-12-23T21:13:11.136Z,117.28
2022-12-23T21:18:10.037Z,125.95
2022-12-23T21:23:10.193Z,107.07
2022-12-23T21:28:08.917Z,96.85
2022-12-23T21:33:07.768Z,105.68
2022-12-23T21:38:06.673Z,95.60
2022-12-23T21:43:08.835Z,101.60
2022-12-23T21:48:10.195Z,99.80
2022-12-23T21:53:09.011Z,90.70
2022-12-23T21:58:09.714Z,83.93
2022-12-23T22:03:10.796Z,91.47
2022-12-23T22:08:11.994Z,93.28
2022-12-23T22:13:12.840Z,94.50
2022-12-23T22:18:11.779Z,115.00
2022-12-23T22:23:10.896Z,99.55
2022-12-23T22:28:09.866Z,100.60
2022-12-23T22:33:10.475Z,80.68
2022-12-23T22:38:11.223Z,83.43
2022-12-23T22:43:10.029Z,76.60
2022-12-23T22:48:10.283Z,74.82
2022-12-23T22:53:09.364Z,84.32
2022-12-23T22:58:08.264Z,79.72
2022-12-23T23:03:07.148Z,66.93
2022-12-23T23:08:08.608Z,68.47
2022-12-23T23:13:07.352Z,231.98
2022-12-23T23:18:06.281Z,86.72
2022-12-23T23:23:05.123Z,72.63
2022-12-23T23:28:05.987Z,94.03
2022-12-23T23:33:04.989Z,70.65
2022-12-23T23:38:03.860Z,90.50
2022-12-23T23:43:02.838Z,68.93
2022-12-23T23:48:11.231Z,64.55
2022-12-23T23:53:10.705Z,58.00
2022-12-23T23:58:10.292Z,62.05
